Colchester, Illinois
Current Conditions -  °F | °C
As of 10:15 AM on Wednesday 28 Jan 2015 (Local Time) from KMQB Reporting Station
Clear Clear  
Wind Chill: 20°   Ceiling: Unl
Heat Index: 32°   Visibility: 10mi
Dew Point: 29°   Wind: 20mph
Humidity: 88%   Direction: 140°SE
Pressure: 30.17"   Gusts: NA
Location:  40.43°N, 90.79°W
Report Text: KMQB 281615Z AUTO 14017KT 10SM CLR 00/M02 A3017 RMK AO2 T00001018
Loading
Personal Weather Stations






























Interactive Weather Map New forecast layout! Learn more

10-Day Weather Forecast

Advertisements
Track Severe Weather on mobile